sensor_id;sensor_type;location;lat;lon;timestamp;pressure;altitude;pressure_sealevel;temperature;humidity
31911;BME280;18457;52.432;16.914;2023-03-11T00:00:05;97598.60;;;8.50;100.00
31911;BME280;18457;52.432;16.914;2023-03-11T00:03:00;97598.59;;;8.53;100.00
31911;BME280;18457;52.432;16.914;2023-03-11T00:05:34;97598.66;;;8.55;100.00
31911;BME280;18457;52.432;16.914;2023-03-11T00:08:10;97597.36;;;8.56;100.00
31911;BME280;18457;52.432;16.914;2023-03-11T00:10:45;97595.32;;;8.57;100.00
31911;BME280;18457;52.432;16.914;2023-03-11T00:13:17;97590.45;;;8.57;100.00
31911;BME280;18457;52.432;16.914;2023-03-11T00:15:51;97592.71;;;8.55;100.00
31911;BME280;18457;52.432;16.914;2023-03-11T00:18:27;97590.89;;;8.56;100.00
31911;BME280;18457;52.432;16.914;2023-03-11T00:21:01;97589.78;;;8.56;100.00
31911;BME280;18457;52.432;16.914;2023-03-11T00:23:33;97588.40;;;8.58;100.00
31911;BME280;18457;52.432;16.914;2023-03-11T00:26:05;97583.66;;;8.59;100.00
31911;BME280;18457;52.432;16.914;2023-03-11T00:28:38;97580.62;;;8.59;100.00
31911;BME280;18457;52.432;16.914;2023-03-11T00:31:12;97585.85;;;8.61;100.00
31911;BME280;18457;52.432;16.914;2023-03-11T00:33:45;97586.06;;;8.61;100.00
31911;BME280;18457;52.432;16.914;2023-03-11T00:36:23;97586.30;;;8.57;100.00
31911;BME280;18457;52.432;16.914;2023-03-11T00:39:00;97586.13;;;8.57;100.00
31911;BME280;18457;52.432;16.914;2023-03-11T00:41:36;97586.33;;;8.48;100.00
31911;BME280;18457;52.432;16.914;2023-03-11T00:44:08;97584.61;;;8.47;100.00
31911;BME280;18457;52.432;16.914;2023-03-11T00:46:42;97582.20;;;8.51;100.00
31911;BME280;18457;52.432;16.914;2023-03-11T00:49:14;97578.73;;;8.46;100.00
31911;BME280;18457;52.432;16.914;2023-03-11T00:51:46;97577.48;;;8.49;100.00
31911;BME280;18457;52.432;16.914;2023-03-11T00:54:18;97570.12;;;8.51;100.00
31911;BME280;18457;52.432;16.914;2023-03-11T00:56:50;97562.30;;;8.47;100.00
31911;BME280;18457;52.432;16.914;2023-03-11T00:59:23;97563.39;;;8.47;100.00
31911;BME280;18457;52.432;16.914;2023-03-11T01:01:55;97560.93;;;8.52;100.00
31911;BME280;18457;52.432;16.914;2023-03-11T01:04:27;97557.98;;;8.52;100.00
31911;BME280;18457;52.432;16.914;2023-03-11T01:06:59;97558.27;;;8.54;100.00
31911;BME280;18457;52.432;16.914;2023-03-11T01:09:30;97554.78;;;8.55;100.00
31911;BME280;18457;52.432;16.914;2023-03-11T01:12:04;97554.91;;;8.55;100.00
31911;BME280;18457;52.432;16.914;2023-03-11T01:14:37;97553.30;;;8.58;100.00
31911;BME280;18457;52.432;16.914;2023-03-11T01:17:11;97550.14;;;8.57;100.00
31911;BME280;18457;52.432;16.914;2023-03-11T01:19:45;97550.48;;;8.46;100.00
31911;BME280;18457;52.432;16.914;2023-03-11T01:22:18;97552.70;;;8.42;100.00
31911;BME280;18457;52.432;16.914;2023-03-11T01:24:50;97552.27;;;8.46;100.00
31911;BME280;18457;52.432;16.914;2023-03-11T01:27:21;97549.11;;;8.51;100.00
31911;BME280;18457;52.432;16.914;2023-03-11T01:29:53;97549.79;;;8.40;100.00
31911;BME280;18457;52.432;16.914;2023-03-11T01:32:25;97548.75;;;8.36;100.00
31911;BME280;18457;52.432;16.914;2023-03-11T01:34:57;97549.38;;;8.41;100.00
31911;BME280;18457;52.432;16.914;2023-03-11T01:37:29;97546.31;;;8.44;100.00
31911;BME280;18457;52.432;16.914;2023-03-11T01:40:03;97548.73;;;8.45;100.00
31911;BME280;18457;52.432;16.914;2023-03-11T01:42:35;97548.05;;;8.45;100.00
31911;BME280;18457;52.432;16.914;2023-03-11T01:45:28;97546.23;;;8.45;100.00
31911;BME280;18457;52.432;16.914;2023-03-11T01:48:02;97548.05;;;8.42;100.00
31911;BME280;18457;52.432;16.914;2023-03-11T01:50:37;97541.83;;;8.38;100.00
31911;BME280;18457;52.432;16.914;2023-03-11T01:53:11;97547.52;;;8.39;100.00
31911;BME280;18457;52.432;16.914;2023-03-11T01:55:45;97542.38;;;8.38;100.00
31911;BME280;18457;52.432;16.914;2023-03-11T01:58:21;97542.59;;;8.40;100.00
31911;BME280;18457;52.432;16.914;2023-03-11T02:00:55;97538.45;;;8.43;100.00
31911;BME280;18457;52.432;16.914;2023-03-11T02:03:31;97541.54;;;8.39;100.00
31911;BME280;18457;52.432;16.914;2023-03-11T02:06:07;97539.55;;;8.31;100.00
31911;BME280;18457;52.432;16.914;2023-03-11T02:08:41;97539.58;;;8.36;100.00
31911;BME280;18457;52.432;16.914;2023-03-11T02:11:16;97540.42;;;8.26;100.00
31911;BME280;18457;52.432;16.914;2023-03-11T02:13:51;97535.36;;;8.29;100.00
31911;BME280;18457;52.432;16.914;2023-03-11T02:16:27;97540.06;;;8.31;100.00
31911;BME280;18457;52.432;16.914;2023-03-11T02:19:03;97538.86;;;8.31;100.00
31911;BME280;18457;52.432;16.914;2023-03-11T02:21:39;97537.47;;;8.29;100.00
31911;BME280;18457;52.432;16.914;2023-03-11T02:24:14;97534.75;;;8.33;100.00
31911;BME280;18457;52.432;16.914;2023-03-11T02:26:55;97539.28;;;8.35;100.00
31911;BME280;18457;52.432;16.914;2023-03-11T02:29:29;97540.67;;;8.27;100.00
31911;BME280;18457;52.432;16.914;2023-03-11T02:32:06;97543.17;;;8.18;100.00
31911;BME280;18457;52.432;16.914;2023-03-11T02:34:40;97543.75;;;8.06;100.00
31911;BME280;18457;52.432;16.914;2023-03-11T02:37:15;97544.61;;;8.03;100.00
31911;BME280;18457;52.432;16.914;2023-03-11T02:39:54;97545.96;;;8.02;100.00
31911;BME280;18457;52.432;16.914;2023-03-11T02:42:47;97543.52;;;8.07;100.00
31911;BME280;18457;52.432;16.914;2023-03-11T02:45:21;97549.70;;;8.09;100.00
31911;BME280;18457;52.432;16.914;2023-03-11T02:47:57;97550.20;;;7.94;100.00
31911;BME280;18457;52.432;16.914;2023-03-11T02:50:31;97556.66;;;7.73;100.00
31911;BME280;18457;52.432;16.914;2023-03-11T02:53:07;97551.96;;;7.61;100.00
31911;BME280;18457;52.432;16.914;2023-03-11T02:55:40;97562.38;;;7.49;100.00
31911;BME280;18457;52.432;16.914;2023-03-11T02:58:12;97569.11;;;7.35;100.00
31911;BME280;18457;52.432;16.914;2023-03-11T03:00:44;97568.63;;;7.25;100.00
31911;BME280;18457;52.432;16.914;2023-03-11T03:03:17;97574.63;;;7.14;100.00
31911;BME280;18457;52.432;16.914;2023-03-11T03:05:49;97582.77;;;6.93;100.00
31911;BME280;18457;52.432;16.914;2023-03-11T03:08:22;97591.09;;;6.73;100.00
31911;BME280;18457;52.432;16.914;2023-03-11T03:10:54;97596.10;;;6.56;100.00
31911;BME280;18457;52.432;16.914;2023-03-11T03:13:26;97597.85;;;6.37;100.00
31911;BME280;18457;52.432;16.914;2023-03-11T03:15:59;97605.05;;;6.37;100.00
31911;BME280;18457;52.432;16.914;2023-03-11T03:18:31;97607.27;;;6.25;100.00
31911;BME280;18457;52.432;16.914;2023-03-11T03:21:04;97616.89;;;6.22;100.00
31911;BME280;18457;52.432;16.914;2023-03-11T03:23:38;97617.64;;;6.12;100.00
31911;BME280;18457;52.432;16.914;2023-03-11T03:26:13;97624.20;;;5.99;100.00
31911;BME280;18457;52.432;16.914;2023-03-11T03:28:46;97627.80;;;5.98;100.00
31911;BME280;18457;52.432;16.914;2023-03-11T03:31:19;97630.18;;;5.75;100.00
31911;BME280;18457;52.432;16.914;2023-03-11T03:33:51;97636.77;;;5.66;100.00
31911;BME280;18457;52.432;16.914;2023-03-11T03:36:24;97645.62;;;5.49;100.00
31911;BME280;18457;52.432;16.914;2023-03-11T03:39:00;97645.89;;;5.48;100.00
31911;BME280;18457;52.432;16.914;2023-03-11T03:41:36;97646.69;;;5.61;100.00
31911;BME280;18457;52.432;16.914;2023-03-11T03:44:09;97655.23;;;5.62;100.00
31911;BME280;18457;52.432;16.914;2023-03-11T03:46:42;97668.30;;;5.40;100.00
31911;BME280;18457;52.432;16.914;2023-03-11T03:49:15;97670.70;;;5.26;100.00
31911;BME280;18457;52.432;16.914;2023-03-11T03:51:46;97679.09;;;5.15;100.00
31911;BME280;18457;52.432;16.914;2023-03-11T03:54:24;97681.90;;;4.97;100.00
31911;BME280;18457;52.432;16.914;2023-03-11T03:56:57;97694.80;;;4.89;100.00
31911;BME280;18457;52.432;16.914;2023-03-11T03:59:29;97699.26;;;4.74;100.00
31911;BME280;18457;52.432;16.914;2023-03-11T04:02:02;97698.27;;;4.72;100.00
31911;BME280;18457;52.432;16.914;2023-03-11T04:04:35;97713.30;;;4.67;100.00
31911;BME280;18457;52.432;16.914;2023-03-11T04:07:07;97717.27;;;4.62;100.00
31911;BME280;18457;52.432;16.914;2023-03-11T04:09:40;97720.53;;;4.49;100.00
31911;BME280;18457;52.432;16.914;2023-03-11T04:12:15;97723.25;;;4.35;100.00
31911;BME280;18457;52.432;16.914;2023-03-11T04:14:48;97727.44;;;4.25;100.00
31911;BME280;18457;52.432;16.914;2023-03-11T04:17:20;97728.67;;;4.17;100.00
31911;BME280;18457;52.432;16.914;2023-03-11T04:19:53;97731.35;;;4.05;100.00
31911;BME280;18457;52.432;16.914;2023-03-11T04:22:25;97737.63;;;3.95;100.00
31911;BME280;18457;52.432;16.914;2023-03-11T04:24:56;97739.39;;;3.92;100.00
31911;BME280;18457;52.432;16.914;2023-03-11T04:27:28;97741.52;;;3.92;100.00
31911;BME280;18457;52.432;16.914;2023-03-11T04:29:59;97749.67;;;3.85;100.00
31911;BME280;18457;52.432;16.914;2023-03-11T04:32:32;97752.30;;;3.73;100.00
31911;BME280;18457;52.432;16.914;2023-03-11T04:35:04;97762.16;;;3.72;100.00
31911;BME280;18457;52.432;16.914;2023-03-11T04:37:36;97764.93;;;3.65;100.00
31911;BME280;18457;52.432;16.914;2023-03-11T04:40:10;97770.80;;;3.61;100.00
31911;BME280;18457;52.432;16.914;2023-03-11T04:42:42;97778.09;;;3.56;100.00
31911;BME280;18457;52.432;16.914;2023-03-11T04:45:14;97784.27;;;3.45;100.00
31911;BME280;18457;52.432;16.914;2023-03-11T04:47:49;97790.73;;;3.34;100.00
31911;BME280;18457;52.432;16.914;2023-03-11T04:50:22;97800.52;;;3.25;100.00
31911;BME280;18457;52.432;16.914;2023-03-11T04:52:53;97806.86;;;3.08;100.00
31911;BME280;18457;52.432;16.914;2023-03-11T04:55:26;97814.66;;;3.00;100.00
31911;BME280;18457;52.432;16.914;2023-03-11T04:57:58;97823.61;;;2.89;100.00
31911;BME280;18457;52.432;16.914;2023-03-11T05:00:31;97829.92;;;2.87;100.00
31911;BME280;18457;52.432;16.914;2023-03-11T05:03:07;97837.30;;;2.90;100.00
31911;BME280;18457;52.432;16.914;2023-03-11T05:05:39;97843.37;;;2.94;100.00
31911;BME280;18457;52.432;16.914;2023-03-11T05:08:12;97842.84;;;2.85;100.00
31911;BME280;18457;52.432;16.914;2023-03-11T05:10:43;97852.27;;;2.80;100.00
31911;BME280;18457;52.432;16.914;2023-03-11T05:13:15;97854.29;;;2.83;100.00
31911;BME280;18457;52.432;16.914;2023-03-11T05:15:48;97868.84;;;2.80;100.00
31911;BME280;18457;52.432;16.914;2023-03-11T05:18:20;97873.69;;;2.68;100.00
31911;BME280;18457;52.432;16.914;2023-03-11T05:20:52;97883.09;;;2.70;100.00
31911;BME280;18457;52.432;16.914;2023-03-11T05:23:27;97892.89;;;2.58;100.00
31911;BME280;18457;52.432;16.914;2023-03-11T05:26:01;97894.00;;;2.57;100.00
31911;BME280;18457;52.432;16.914;2023-03-11T05:28:34;97901.65;;;2.47;100.00
31911;BME280;18457;52.432;16.914;2023-03-11T05:31:09;97910.19;;;2.42;100.00
31911;BME280;18457;52.432;16.914;2023-03-11T05:33:41;97915.92;;;2.46;100.00
31911;BME280;18457;52.432;16.914;2023-03-11T05:36:15;97924.89;;;2.50;100.00
31911;BME280;18457;52.432;16.914;2023-03-11T05:38:47;97932.14;;;2.40;100.00
31911;BME280;18457;52.432;16.914;2023-03-11T05:41:19;97942.04;;;2.43;100.00
31911;BME280;18457;52.432;16.914;2023-03-11T05:43:51;97947.11;;;2.40;100.00
31911;BME280;18457;52.432;16.914;2023-03-11T05:46:24;97956.72;;;2.40;100.00
31911;BME280;18457;52.432;16.914;2023-03-11T05:48:59;97960.24;;;2.30;100.00
31911;BME280;18457;52.432;16.914;2023-03-11T05:51:31;97971.65;;;2.24;100.00
31911;BME280;18457;52.432;16.914;2023-03-11T05:54:03;97978.40;;;2.31;100.00
31911;BME280;18457;52.432;16.914;2023-03-11T05:56:42;97987.70;;;2.29;100.00
31911;BME280;18457;52.432;16.914;2023-03-11T05:59:13;97997.23;;;2.37;100.00
31911;BME280;18457;52.432;16.914;2023-03-11T06:01:48;98003.35;;;2.36;100.00
31911;BME280;18457;52.432;16.914;2023-03-11T06:04:19;98013.46;;;2.31;100.00
31911;BME280;18457;52.432;16.914;2023-03-11T06:06:52;98018.27;;;2.25;100.00
31911;BME280;18457;52.432;16.914;2023-03-11T06:09:26;98026.89;;;2.29;100.00
31911;BME280;18457;52.432;16.914;2023-03-11T06:11:59;98039.92;;;2.28;100.00
31911;BME280;18457;52.432;16.914;2023-03-11T06:14:37;98044.81;;;2.25;100.00
31911;BME280;18457;52.432;16.914;2023-03-11T06:17:09;98055.19;;;2.23;100.00
31911;BME280;18457;52.432;16.914;2023-03-11T06:19:43;98060.41;;;2.33;100.00
31911;BME280;18457;52.432;16.914;2023-03-11T06:22:15;98071.80;;;2.22;100.00
31911;BME280;18457;52.432;16.914;2023-03-11T06:24:48;98080.58;;;2.20;100.00
31911;BME280;18457;52.432;16.914;2023-03-11T06:27:21;98090.16;;;2.21;100.00
31911;BME280;18457;52.432;16.914;2023-03-11T06:29:53;98103.10;;;2.17;100.00
31911;BME280;18457;52.432;16.914;2023-03-11T06:32:26;98113.00;;;2.13;100.00
31911;BME280;18457;52.432;16.914;2023-03-11T06:35:05;98120.02;;;2.10;100.00
31911;BME280;18457;52.432;16.914;2023-03-11T06:37:38;98137.08;;;2.12;100.00
31911;BME280;18457;52.432;16.914;2023-03-11T06:40:12;98148.17;;;2.09;100.00
31911;BME280;18457;52.432;16.914;2023-03-11T06:42:47;98162.08;;;2.09;100.00
31911;BME280;18457;52.432;16.914;2023-03-11T06:45:20;98176.26;;;1.98;100.00
31911;BME280;18457;52.432;16.914;2023-03-11T06:47:54;98190.36;;;1.96;100.00
31911;BME280;18457;52.432;16.914;2023-03-11T06:50:26;98206.98;;;2.01;100.00
31911;BME280;18457;52.432;16.914;2023-03-11T06:52:59;98212.89;;;1.99;100.00
31911;BME280;18457;52.432;16.914;2023-03-11T06:55:33;98222.50;;;1.99;100.00
31911;BME280;18457;52.432;16.914;2023-03-11T06:58:06;98235.31;;;1.99;100.00
31911;BME280;18457;52.432;16.914;2023-03-11T07:00:38;98248.84;;;2.07;100.00
31911;BME280;18457;52.432;16.914;2023-03-11T07:03:13;98258.88;;;2.04;100.00
31911;BME280;18457;52.432;16.914;2023-03-11T07:05:45;98270.60;;;1.98;100.00
31911;BME280;18457;52.432;16.914;2023-03-11T07:08:20;98279.31;;;1.91;100.00
31911;BME280;18457;52.432;16.914;2023-03-11T07:11:00;98284.23;;;1.86;100.00
31911;BME280;18457;52.432;16.914;2023-03-11T07:13:33;98282.98;;;1.87;100.00
31911;BME280;18457;52.432;16.914;2023-03-11T07:16:07;98299.36;;;1.87;100.00
31911;BME280;18457;52.432;16.914;2023-03-11T07:18:40;98310.02;;;1.87;100.00
31911;BME280;18457;52.432;16.914;2023-03-11T07:21:12;98320.68;;;1.88;100.00
31911;BME280;18457;52.432;16.914;2023-03-11T07:23:44;98326.34;;;1.82;100.00
31911;BME280;18457;52.432;16.914;2023-03-11T07:26:16;98340.10;;;1.87;100.00
31911;BME280;18457;52.432;16.914;2023-03-11T07:28:49;98353.95;;;1.89;100.00
31911;BME280;18457;52.432;16.914;2023-03-11T07:31:24;98361.84;;;1.86;100.00
31911;BME280;18457;52.432;16.914;2023-03-11T07:33:58;98366.45;;;1.86;100.00
31911;BME280;18457;52.432;16.914;2023-03-11T07:36:31;98372.64;;;1.89;100.00
31911;BME280;18457;52.432;16.914;2023-03-11T07:39:04;98375.99;;;1.90;100.00
31911;BME280;18457;52.432;16.914;2023-03-11T07:41:37;98388.27;;;1.90;100.00
31911;BME280;18457;52.432;16.914;2023-03-11T07:44:09;98392.56;;;1.90;100.00
31911;BME280;18457;52.432;16.914;2023-03-11T07:46:43;98403.04;;;1.90;100.00
31911;BME280;18457;52.432;16.914;2023-03-11T07:49:15;98408.66;;;1.93;100.00
31911;BME280;18457;52.432;16.914;2023-03-11T07:51:46;98414.93;;;1.92;100.00
31911;BME280;18457;52.432;16.914;2023-03-11T07:54:18;98413.39;;;1.89;100.00
31911;BME280;18457;52.432;16.914;2023-03-11T07:56:50;98420.66;;;1.90;100.00
31911;BME280;18457;52.432;16.914;2023-03-11T07:59:22;98429.79;;;1.96;100.00
31911;BME280;18457;52.432;16.914;2023-03-11T08:01:55;98446.77;;;2.01;100.00
31911;BME280;18457;52.432;16.914;2023-03-11T08:04:28;98452.54;;;1.98;100.00
31911;BME280;18457;52.432;16.914;2023-03-11T08:07:01;98468.40;;;2.05;100.00
31911;BME280;18457;52.432;16.914;2023-03-11T08:09:34;98477.81;;;2.06;100.00
31911;BME280;18457;52.432;16.914;2023-03-11T08:12:08;98484.58;;;2.06;100.00
31911;BME280;18457;52.432;16.914;2023-03-11T08:14:40;98495.54;;;2.02;100.00
31911;BME280;18457;52.432;16.914;2023-03-11T08:17:11;98500.04;;;1.99;100.00
31911;BME280;18457;52.432;16.914;2023-03-11T08:19:44;98507.98;;;1.94;100.00
31911;BME280;18457;52.432;16.914;2023-03-11T08:22:16;98517.08;;;1.93;100.00
31911;BME280;18457;52.432;16.914;2023-03-11T08:24:51;98524.73;;;1.93;100.00
31911;BME280;18457;52.432;16.914;2023-03-11T08:27:26;98535.23;;;1.85;100.00
31911;BME280;18457;52.432;16.914;2023-03-11T08:30:01;98547.48;;;1.86;100.00
31911;BME280;18457;52.432;16.914;2023-03-11T08:32:33;98551.84;;;1.91;100.00
31911;BME280;18457;52.432;16.914;2023-03-11T08:35:04;98564.95;;;1.84;100.00
31911;BME280;18457;52.432;16.914;2023-03-11T08:37:37;98575.81;;;1.84;100.00
31911;BME280;18457;52.432;16.914;2023-03-11T08:40:11;98579.30;;;1.79;100.00
31911;BME280;18457;52.432;16.914;2023-03-11T08:42:44;98583.15;;;1.82;100.00
31911;BME280;18457;52.432;16.914;2023-03-11T08:45:17;98588.00;;;1.89;100.00
31911;BME280;18457;52.432;16.914;2023-03-11T08:47:47;98592.80;;;1.90;100.00
31911;BME280;18457;52.432;16.914;2023-03-11T08:50:20;98591.23;;;1.97;100.00
31911;BME280;18457;52.432;16.914;2023-03-11T08:52:52;98594.52;;;2.02;100.00
31911;BME280;18457;52.432;16.914;2023-03-11T08:55:26;98602.98;;;1.97;100.00
31911;BME280;18457;52.432;16.914;2023-03-11T08:57:59;98607.29;;;1.96;100.00
31911;BME280;18457;52.432;16.914;2023-03-11T09:00:32;98615.23;;;1.90;100.00
31911;BME280;18457;52.432;16.914;2023-03-11T09:03:04;98627.89;;;1.88;100.00
31911;BME280;18457;52.432;16.914;2023-03-11T09:05:37;98634.35;;;1.95;100.00
31911;BME280;18457;52.432;16.914;2023-03-11T09:08:10;98635.83;;;1.92;100.00
31911;BME280;18457;52.432;16.914;2023-03-11T09:10:41;98645.02;;;1.97;100.00
31911;BME280;18457;52.432;16.914;2023-03-11T09:13:12;98656.39;;;1.97;100.00
31911;BME280;18457;52.432;16.914;2023-03-11T09:15:42;98657.52;;;2.03;100.00
31911;BME280;18457;52.432;16.914;2023-03-11T09:18:14;98671.50;;;2.08;100.00
31911;BME280;18457;52.432;16.914;2023-03-11T09:20:45;98678.00;;;2.13;100.00
31911;BME280;18457;52.432;16.914;2023-03-11T09:23:16;98687.48;;;2.21;99.77
31911;BME280;18457;52.432;16.914;2023-03-11T09:25:47;98691.41;;;2.20;99.17
31911;BME280;18457;52.432;16.914;2023-03-11T09:28:17;98700.64;;;2.31;99.18
31911;BME280;18457;52.432;16.914;2023-03-11T09:30:48;98706.00;;;2.30;99.26
31911;BME280;18457;52.432;16.914;2023-03-11T09:33:19;98710.73;;;2.25;98.90
31911;BME280;18457;52.432;16.914;2023-03-11T09:35:49;98718.27;;;2.31;99.50
31911;BME280;18457;52.432;16.914;2023-03-11T09:38:20;98728.80;;;2.20;97.46
31911;BME280;18457;52.432;16.914;2023-03-11T09:40:57;98726.83;;;2.21;97.26
31911;BME280;18457;52.432;16.914;2023-03-11T09:43:38;98731.79;;;2.22;96.18
31911;BME280;18457;52.432;16.914;2023-03-11T09:46:17;98737.29;;;2.23;96.18
31911;BME280;18457;52.432;16.914;2023-03-11T09:48:53;98744.54;;;2.27;96.78
31911;BME280;18457;52.432;16.914;2023-03-11T09:51:28;98747.49;;;2.21;96.02
31911;BME280;18457;52.432;16.914;2023-03-11T09:54:02;98758.02;;;2.20;97.15
31911;BME280;18457;52.432;16.914;2023-03-11T09:56:33;98769.61;;;2.20;98.33
31911;BME280;18457;52.432;16.914;2023-03-11T09:59:06;98778.80;;;2.11;99.63
31911;BME280;18457;52.432;16.914;2023-03-11T10:01:38;98787.17;;;2.12;100.00
31911;BME280;18457;52.432;16.914;2023-03-11T10:04:12;98794.13;;;2.12;100.00
31911;BME280;18457;52.432;16.914;2023-03-11T10:06:44;98797.64;;;2.15;100.00
31911;BME280;18457;52.432;16.914;2023-03-11T10:09:24;98807.83;;;2.13;100.00
31911;BME280;18457;52.432;16.914;2023-03-11T10:12:04;98811.14;;;2.06;100.00
31911;BME280;18457;52.432;16.914;2023-03-11T10:14:53;98814.08;;;2.00;100.00
31911;BME280;18457;52.432;16.914;2023-03-11T10:17:35;98818.86;;;2.03;100.00
31911;BME280;18457;52.432;16.914;2023-03-11T10:20:10;98823.83;;;2.03;100.00
31911;BME280;18457;52.432;16.914;2023-03-11T10:22:45;98828.80;;;2.04;100.00
31911;BME280;18457;52.432;16.914;2023-03-11T10:25:20;98834.54;;;2.12;100.00
31911;BME280;18457;52.432;16.914;2023-03-11T10:27:56;98845.03;;;2.14;100.00
31911;BME280;18457;52.432;16.914;2023-03-11T10:30:30;98847.40;;;2.11;100.00
31911;BME280;18457;52.432;16.914;2023-03-11T10:33:01;98851.43;;;2.03;100.00
31911;BME280;18457;52.432;16.914;2023-03-11T10:35:37;98848.77;;;2.03;100.00
31911;BME280;18457;52.432;16.914;2023-03-11T10:38:12;98857.77;;;1.96;100.00
31911;BME280;18457;52.432;16.914;2023-03-11T10:40:44;98862.70;;;1.88;100.00
31911;BME280;18457;52.432;16.914;2023-03-11T10:43:16;98873.23;;;1.85;100.00
31911;BME280;18457;52.432;16.914;2023-03-11T10:45:47;98873.81;;;1.82;100.00
31911;BME280;18457;52.432;16.914;2023-03-11T10:48:20;98877.80;;;1.89;100.00
31911;BME280;18457;52.432;16.914;2023-03-11T10:50:51;98892.35;;;2.06;100.00
31911;BME280;18457;52.432;16.914;2023-03-11T10:53:24;98895.64;;;2.12;100.00
31911;BME280;18457;52.432;16.914;2023-03-11T10:55:55;98885.25;;;2.15;100.00
31911;BME280;18457;52.432;16.914;2023-03-11T10:58:27;98901.25;;;2.17;100.00
31911;BME280;18457;52.432;16.914;2023-03-11T11:01:02;98910.98;;;2.22;99.72
31911;BME280;18457;52.432;16.914;2023-03-11T11:03:33;98915.45;;;2.32;99.78
31911;BME280;18457;52.432;16.914;2023-03-11T11:06:05;98916.36;;;2.43;99.65
31911;BME280;18457;52.432;16.914;2023-03-11T11:08:37;98927.21;;;2.44;98.38
31911;BME280;18457;52.432;16.914;2023-03-11T11:11:19;98933.89;;;2.39;96.59
31911;BME280;18457;52.432;16.914;2023-03-11T11:13:56;98940.58;;;2.44;96.14
31911;BME280;18457;52.432;16.914;2023-03-11T11:16:27;98939.22;;;2.39;95.88
31911;BME280;18457;52.432;16.914;2023-03-11T11:18:58;98936.20;;;2.50;96.56
31911;BME280;18457;52.432;16.914;2023-03-11T11:21:32;98944.95;;;2.49;97.60
31911;BME280;18457;52.432;16.914;2023-03-11T11:24:13;98954.79;;;2.47;97.29
31911;BME280;18457;52.432;16.914;2023-03-11T11:29:28;98958.51;;;2.48;96.22
31911;BME280;18457;52.432;16.914;2023-03-11T11:32:14;98966.44;;;2.54;96.48
31911;BME280;18457;52.432;16.914;2023-03-11T11:34:53;98971.68;;;2.49;95.48
31911;BME280;18457;52.432;16.914;2023-03-11T11:37:26;98975.38;;;2.63;95.48
31911;BME280;18457;52.432;16.914;2023-03-11T11:40:02;98980.43;;;2.59;93.49
31911;BME280;18457;52.432;16.914;2023-03-11T11:42:40;98984.48;;;2.51;92.12
31911;BME280;18457;52.432;16.914;2023-03-11T11:45:15;98988.48;;;2.57;93.17
31911;BME280;18457;52.432;16.914;2023-03-11T11:47:47;98997.79;;;2.55;93.95
31911;BME280;18457;52.432;16.914;2023-03-11T11:50:22;99003.36;;;2.51;94.27
31911;BME280;18457;52.432;16.914;2023-03-11T11:52:56;99005.91;;;2.60;95.57
31911;BME280;18457;52.432;16.914;2023-03-11T11:55:28;99003.48;;;2.67;94.36
31911;BME280;18457;52.432;16.914;2023-03-11T11:57:59;99002.36;;;2.59;93.52
31911;BME280;18457;52.432;16.914;2023-03-11T12:00:31;99009.98;;;2.49;93.56
31911;BME280;18457;52.432;16.914;2023-03-11T12:03:07;99011.10;;;2.58;94.35
31911;BME280;18457;52.432;16.914;2023-03-11T12:05:46;99020.88;;;2.60;94.72
31911;BME280;18457;52.432;16.914;2023-03-11T12:08:21;99019.27;;;2.48;95.21
31911;BME280;18457;52.432;16.914;2023-03-11T12:10:55;99024.01;;;2.41;95.19
31911;BME280;18457;52.432;16.914;2023-03-11T12:13:32;99021.70;;;2.40;94.23
31911;BME280;18457;52.432;16.914;2023-03-11T12:16:12;99025.80;;;2.40;93.27
31911;BME280;18457;52.432;16.914;2023-03-11T12:18:46;99035.19;;;2.43;92.34
31911;BME280;18457;52.432;16.914;2023-03-11T12:21:22;99042.30;;;2.45;91.33
31911;BME280;18457;52.432;16.914;2023-03-11T12:24:01;99041.65;;;2.41;87.69
31911;BME280;18457;52.432;16.914;2023-03-11T12:26:36;99048.92;;;2.56;88.63
31911;BME280;18457;52.432;16.914;2023-03-11T12:29:11;99056.93;;;2.70;89.98
31911;BME280;18457;52.432;16.914;2023-03-11T12:31:46;99070.20;;;2.63;89.73
31911;BME280;18457;52.432;16.914;2023-03-11T12:34:18;99068.45;;;2.61;88.45
31911;BME280;18457;52.432;16.914;2023-03-11T12:36:49;99085.27;;;2.69;86.35
31911;BME280;18457;52.432;16.914;2023-03-11T12:39:21;99082.64;;;2.67;83.55
31911;BME280;18457;52.432;16.914;2023-03-11T12:44:41;99083.73;;;2.79;80.50
31911;BME280;18457;52.432;16.914;2023-03-11T12:52:52;99090.82;;;3.04;77.95
31911;BME280;18457;52.432;16.914;2023-03-11T12:55:33;99100.96;;;3.29;78.62
31911;BME280;18457;52.432;16.914;2023-03-11T13:01:06;99113.64;;;3.06;78.10
31911;BME280;18457;52.432;16.914;2023-03-11T13:03:41;99125.04;;;2.95;79.65
31911;BME280;18457;52.432;16.914;2023-03-11T13:06:18;99127.56;;;2.93;81.39
31911;BME280;18457;52.432;16.914;2023-03-11T13:08:51;99139.23;;;2.87;81.02
31911;BME280;18457;52.432;16.914;2023-03-11T13:11:34;99141.25;;;2.83;80.76
31911;BME280;18457;52.432;16.914;2023-03-11T13:14:09;99141.31;;;2.78;79.99
31911;BME280;18457;52.432;16.914;2023-03-11T13:16:44;99143.51;;;2.74;79.71
31911;BME280;18457;52.432;16.914;2023-03-11T13:19:34;99143.98;;;2.65;79.62
31911;BME280;18457;52.432;16.914;2023-03-11T13:22:20;99161.27;;;2.65;80.42
31911;BME280;18457;52.432;16.914;2023-03-11T13:24:58;99156.66;;;2.63;81.59
31911;BME280;18457;52.432;16.914;2023-03-11T13:27:47;99165.33;;;2.68;81.13
31911;BME280;18457;52.432;16.914;2023-03-11T13:30:20;99175.16;;;2.65;80.98
31911;BME280;18457;52.432;16.914;2023-03-11T13:35:43;99184.48;;;2.62;79.27
31911;BME280;18457;52.432;16.914;2023-03-11T13:38:37;99184.63;;;2.64;79.02
31911;BME280;18457;52.432;16.914;2023-03-11T13:41:13;99191.57;;;2.80;78.72
31911;BME280;18457;52.432;16.914;2023-03-11T13:43:46;99196.09;;;3.02;77.17